Time;durP1;ratioP1;P1;durP2;ratioP2;P2;SDS_P1;SDS_P2;PMS_P1;PMS_P2;Temp;Humidity;BMP_temperature;BMP_pressure;BME280_temperature;BME280_humidity;BME280_pressure;Samples;Min_cycle;Max_cycle;Signal;HPM_P1;HPM_P2
2021/10/07 00:02:20;;;;;;;3.20;1.50;;;11.40;99.90;;;;;;5089504;28;20454;-67
2021/10/07 00:04:47;;;;;;;2.80;1.50;;;11.40;99.90;;;;;;5092894;28;20627;-67
2021/10/07 00:07:15;;;;;;;2.97;1.60;;;11.40;99.90;;;;;;5094249;28;20533;-67
2021/10/07 00:09:42;;;;;;;2.03;1.50;;;11.40;99.90;;;;;;5093841;28;20456;-67
2021/10/07 00:12:09;;;;;;;4.10;1.83;;;11.40;99.90;;;;;;5092658;28;20877;-67
2021/10/07 00:14:38;;;;;;;2.80;1.80;;;11.40;99.90;;;;;;5093197;28;21031;-67
2021/10/07 00:17:05;;;;;;;5.20;1.93;;;11.30;99.90;;;;;;5093500;28;20464;-67
2021/10/07 00:19:31;;;;;;;3.17;1.73;;;11.30;99.90;;;;;;5093342;28;20476;-66
2021/10/07 00:21:58;;;;;;;3.00;1.57;;;11.30;99.90;;;;;;5092530;28;20446;-67
2021/10/07 00:24:25;;;;;;;3.63;1.70;;;11.30;99.90;;;;;;5092938;28;20511;-67
2021/10/07 00:26:52;;;;;;;3.57;1.70;;;11.30;99.90;;;;;;5093597;28;20450;-67
2021/10/07 00:32:05;;;;;;;2.60;1.50;;;11.40;99.90;;;;;;5092088;28;20437;-66
2021/10/07 00:34:41;;;;;;;3.30;1.53;;;11.40;99.90;;;;;;5091876;28;20456;-67
2021/10/07 00:37:20;;;;;;;2.30;1.43;;;11.40;99.90;;;;;;5093451;28;20448;-66
2021/10/07 00:39:46;;;;;;;3.80;1.77;;;11.30;99.90;;;;;;5093014;28;21066;-68
2021/10/07 00:42:14;;;;;;;2.97;1.60;;;11.30;99.90;;;;;;5091895;28;20532;-67
2021/10/07 00:44:41;;;;;;;2.77;1.60;;;11.30;99.90;;;;;;5092510;28;20466;-67
2021/10/07 00:47:09;;;;;;;3.40;1.60;;;11.30;99.90;;;;;;5092602;28;20450;-67
2021/10/07 00:49:39;;;;;;;3.23;1.50;;;11.30;99.90;;;;;;5092833;28;21113;-67
2021/10/07 00:52:06;;;;;;;2.73;1.90;;;11.20;99.90;;;;;;5092079;28;20450;-67
2021/10/07 00:54:34;;;;;;;4.27;2.00;;;11.20;99.90;;;;;;5092464;28;20442;-67
2021/10/07 00:57:04;;;;;;;2.90;1.87;;;11.20;99.90;;;;;;5092703;28;20442;-67
2021/10/07 00:59:33;;;;;;;3.80;1.83;;;11.20;99.90;;;;;;5092351;28;20557;-67
2021/10/07 01:02:04;;;;;;;2.73;1.83;;;11.20;99.90;;;;;;5091744;28;20468;-67
2021/10/07 01:04:32;;;;;;;3.93;1.60;;;11.20;99.90;;;;;;5092101;28;20474;-66
2021/10/07 01:06:59;;;;;;;2.67;1.83;;;11.20;99.90;;;;;;5092520;28;20453;-67
2021/10/07 01:09:28;;;;;;;3.63;1.70;;;11.20;99.90;;;;;;5092286;28;20514;-67
2021/10/07 01:11:55;;;;;;;3.50;2.13;;;11.30;99.90;;;;;;5091200;28;20443;-67
2021/10/07 01:14:42;;;;;;;2.13;1.30;;;11.30;99.90;;;;;;5091533;28;20533;-67
2021/10/07 01:17:09;;;;;;;2.97;1.90;;;11.30;99.90;;;;;;5092136;28;20452;-67
2021/10/07 01:19:40;;;;;;;2.90;1.27;;;11.30;99.90;;;;;;5092209;28;20474;-67
2021/10/07 01:22:07;;;;;;;3.40;1.70;;;11.40;99.90;;;;;;5091377;28;21020;-67
2021/10/07 01:24:35;;;;;;;2.57;1.60;;;11.40;99.90;;;;;;5091714;28;20482;-67
2021/10/07 01:27:02;;;;;;;3.00;1.40;;;11.40;99.90;;;;;;5092338;28;20446;-66
2021/10/07 01:29:29;;;;;;;4.10;1.77;;;11.40;99.90;;;;;;5092383;28;20466;-66
2021/10/07 01:31:56;;;;;;;2.90;1.60;;;11.40;99.90;;;;;;5091174;28;20450;-67
2021/10/07 01:34:25;;;;;;;3.00;1.90;;;11.40;99.90;;;;;;5091688;28;20442;-66
2021/10/07 01:36:53;;;;;;;3.33;1.70;;;11.40;99.90;;;;;;5091923;28;20821;-67
2021/10/07 01:39:21;;;;;;;3.70;1.90;;;11.50;99.90;;;;;;5091751;28;20469;-67
2021/10/07 01:41:49;;;;;;;2.97;1.90;;;11.50;99.90;;;;;;5091050;28;20478;-67
2021/10/07 01:44:18;;;;;;;4.37;2.40;;;11.50;99.90;;;;;;5091628;28;20510;-67
2021/10/07 01:46:45;;;;;;;4.33;2.00;;;11.50;99.90;;;;;;5091856;28;20454;-67
2021/10/07 01:49:12;;;;;;;5.57;2.60;;;11.50;99.90;;;;;;5091538;28;20474;-67
2021/10/07 01:51:39;;;;;;;4.47;1.97;;;11.50;99.90;;;;;;5090649;28;20454;-67
2021/10/07 01:54:08;;;;;;;4.43;2.00;;;11.50;99.90;;;;;;5091464;28;20599;-67
2021/10/07 01:56:35;;;;;;;3.70;2.37;;;11.50;99.90;;;;;;5091382;28;20443;-67
2021/10/07 01:59:05;;;;;;;5.73;2.23;;;11.50;99.90;;;;;;5091799;28;20557;-67
2021/10/07 02:01:32;;;;;;;3.40;1.90;;;11.50;99.90;;;;;;5090939;28;20541;-67
2021/10/07 02:03:59;;;;;;;2.70;1.83;;;11.40;99.90;;;;;;5091035;28;20535;-67
2021/10/07 02:06:26;;;;;;;4.93;2.47;;;11.40;99.90;;;;;;5091594;28;20453;-67
2021/10/07 02:08:53;;;;;;;4.10;2.47;;;11.40;99.90;;;;;;5091291;28;20474;-67
2021/10/07 02:11:21;;;;;;;2.87;2.07;;;11.40;99.90;;;;;;5091153;28;20954;-66
2021/10/07 02:13:48;;;;;;;4.43;2.60;;;11.50;99.90;;;;;;5090561;28;20468;-67
2021/10/07 02:16:14;;;;;;;4.47;2.80;;;11.40;99.90;;;;;;5091250;28;21120;-67
2021/10/07 02:18:41;;;;;;;4.27;2.57;;;11.40;99.90;;;;;;5091187;28;20905;-67
2021/10/07 02:21:08;;;;;;;6.47;2.77;;;11.50;99.90;;;;;;5091143;28;20449;-67
2021/10/07 02:23:35;;;;;;;6.90;3.60;;;11.50;99.90;;;;;;5089782;28;20450;-66
2021/10/07 02:26:02;;;;;;;5.13;3.57;;;11.40;99.90;;;;;;5090951;28;20490;-66
2021/10/07 02:28:30;;;;;;;4.03;3.03;;;11.30;99.90;;;;;;5090326;28;20470;-67
2021/10/07 02:30:58;;;;;;;5.27;3.40;;;11.20;99.90;;;;;;5091236;28;20447;-67
2021/10/07 02:33:25;;;;;;;6.67;3.73;;;11.20;99.90;;;;;;5089822;28;20454;-66
2021/10/07 02:35:52;;;;;;;5.63;3.40;;;11.10;99.90;;;;;;5091126;28;20449;-67
2021/10/07 02:38:19;;;;;;;7.03;3.20;;;11.10;99.90;;;;;;5091175;28;20472;-67
2021/10/07 02:40:46;;;;;;;4.93;2.80;;;11.10;99.90;;;;;;5091437;28;20529;-67
2021/10/07 02:43:13;;;;;;;3.93;2.40;;;11.10;99.90;;;;;;5089937;28;20541;-67
2021/10/07 02:45:41;;;;;;;5.03;2.90;;;11.00;99.90;;;;;;5090765;28;21118;-67
2021/10/07 02:48:08;;;;;;;3.70;2.63;;;11.00;99.90;;;;;;5090828;28;20841;-67
2021/10/07 02:50:36;;;;;;;8.80;2.57;;;10.90;99.90;;;;;;5090831;28;20537;-67
2021/10/07 02:53:03;;;;;;;3.03;2.57;;;10.90;99.90;;;;;;5089524;28;20849;-67
2021/10/07 02:55:30;;;;;;;5.77;3.73;;;10.90;99.90;;;;;;5090789;28;20877;-67
2021/10/07 02:57:57;;;;;;;5.00;3.20;;;10.90;99.90;;;;;;5090300;28;20474;-66
2021/10/07 03:00:24;;;;;;;4.37;2.90;;;10.90;99.90;;;;;;5090480;28;20447;-67
2021/10/07 03:02:52;;;;;;;4.13;3.20;;;11.00;99.90;;;;;;5089272;28;20477;-68
2021/10/07 03:05:19;;;;;;;4.27;2.70;;;11.00;99.90;;;;;;5090514;28;20484;-67
2021/10/07 03:07:46;;;;;;;5.90;3.60;;;11.00;99.90;;;;;;5090825;28;20470;-67
2021/10/07 03:10:13;;;;;;;6.20;4.17;;;11.00;99.90;;;;;;5090397;28;20812;-66
2021/10/07 03:12:40;;;;;;;6.30;4.00;;;11.00;99.90;;;;;;5089511;28;20489;-67
2021/10/07 03:15:08;;;;;;;8.50;5.00;;;11.00;99.90;;;;;;5090255;28;20453;-67
2021/10/07 03:17:36;;;;;;;6.93;3.63;;;11.10;99.90;;;;;;5090259;28;20476;-67
2021/10/07 03:20:06;;;;;;;4.70;3.17;;;11.20;99.90;;;;;;5090528;28;20451;-67
2021/10/07 03:22:33;;;;;;;5.07;3.23;;;11.20;99.90;;;;;;5089444;28;20453;-67
2021/10/07 03:25:00;;;;;;;4.83;3.20;;;11.20;99.90;;;;;;5089797;28;20484;-67
2021/10/07 03:27:27;;;;;;;9.70;3.37;;;11.20;99.90;;;;;;5090003;28;20461;-67
2021/10/07 03:29:54;;;;;;;5.50;3.27;;;11.20;99.90;;;;;;5090360;28;20473;-67
2021/10/07 03:32:21;;;;;;;4.17;3.20;;;11.30;99.90;;;;;;5089435;28;20442;-67
2021/10/07 03:34:48;;;;;;;6.87;3.37;;;11.30;99.90;;;;;;5089879;28;20442;-67
2021/10/07 03:37:16;;;;;;;6.13;4.00;;;11.30;99.90;;;;;;5089949;28;20965;-67
2021/10/07 03:39:43;;;;;;;4.87;3.80;;;11.30;99.90;;;;;;5093136;28;20456;-67
2021/10/07 03:42:11;;;;;;;3.50;2.70;;;11.30;99.90;;;;;;5093416;28;20438;-67
2021/10/07 03:44:38;;;;;;;3.90;3.10;;;11.30;99.90;;;;;;5093838;28;20849;-67
2021/10/07 03:47:06;;;;;;;6.77;2.83;;;11.30;99.90;;;;;;5094153;28;20906;-66
2021/10/07 03:49:32;;;;;;;4.67;3.03;;;11.20;99.90;;;;;;5094345;28;20477;-67
2021/10/07 03:51:59;;;;;;;4.93;3.07;;;11.30;99.90;;;;;;5093186;28;20448;-67
2021/10/07 03:54:28;;;;;;;4.40;2.93;;;11.30;99.90;;;;;;5093668;28;20459;-67
2021/10/07 03:56:54;;;;;;;4.10;3.10;;;11.20;99.90;;;;;;5093842;28;20822;-67
2021/10/07 03:59:21;;;;;;;4.70;3.00;;;11.20;99.90;;;;;;5094001;28;20478;-67
2021/10/07 04:01:48;;;;;;;6.13;3.67;;;11.30;99.90;;;;;;5093500;28;20795;-67
2021/10/07 04:04:15;;;;;;;4.40;2.87;;;11.30;99.90;;;;;;5093680;28;20450;-67
2021/10/07 04:06:42;;;;;;;4.30;2.97;;;11.30;99.90;;;;;;5093839;28;20488;-67
2021/10/07 04:09:09;;;;;;;4.77;2.67;;;11.30;99.90;;;;;;5093600;28;20557;-67
2021/10/07 04:11:37;;;;;;;5.27;3.20;;;11.40;99.90;;;;;;5093396;28;21304;-67
2021/10/07 04:14:04;;;;;;;4.83;3.10;;;11.30;99.90;;;;;;5093698;28;20446;-66
2021/10/07 04:16:31;;;;;;;3.87;2.70;;;11.30;99.90;;;;;;5093887;28;20442;-66
2021/10/07 04:18:58;;;;;;;8.23;3.90;;;11.30;99.90;;;;;;5093791;28;20547;-66
2021/10/07 04:21:25;;;;;;;6.50;3.80;;;11.30;99.90;;;;;;5093524;28;20450;-66
2021/10/07 04:23:52;;;;;;;4.70;3.47;;;11.20;99.90;;;;;;5093035;28;20465;-66
2021/10/07 04:26:19;;;;;;;5.33;3.20;;;11.20;99.90;;;;;;5094108;28;20503;-66
2021/10/07 04:28:48;;;;;;;5.70;3.67;;;11.20;99.90;;;;;;5094302;28;20997;-67
2021/10/07 04:31:15;;;;;;;9.17;4.10;;;11.20;99.90;;;;;;5110691;28;20938;-69
2021/10/07 04:33:42;;;;;;;4.43;3.40;;;11.20;99.90;;;;;;5097194;28;20449;-66
2021/10/07 04:36:08;;;;;;;4.60;3.60;;;11.20;99.90;;;;;;5104826;28;21081;-66
2021/10/07 04:38:36;;;;;;;5.63;3.80;;;11.20;99.90;;;;;;5105988;28;20457;-67
2021/10/07 04:41:03;;;;;;;9.97;4.30;;;11.20;99.90;;;;;;5113305;28;20441;-68
2021/10/07 04:43:30;;;;;;;6.10;4.00;;;11.20;99.90;;;;;;5112221;28;20468;-66
2021/10/07 04:45:58;;;;;;;4.50;3.80;;;11.10;99.90;;;;;;5113072;28;20484;-66
2021/10/07 04:48:25;;;;;;;6.87;3.67;;;11.10;99.90;;;;;;5113347;28;21061;-65
2021/10/07 04:50:52;;;;;;;4.17;3.20;;;11.10;99.90;;;;;;5111665;28;20445;-65
2021/10/07 04:53:18;;;;;;;4.50;2.90;;;11.20;99.90;;;;;;5111973;28;20532;-64
2021/10/07 04:55:45;;;;;;;3.70;2.80;;;11.20;99.90;;;;;;5113019;28;20430;-65
2021/10/07 04:58:12;;;;;;;4.30;3.03;;;11.10;99.90;;;;;;5113203;28;21020;-65
2021/10/07 05:00:39;;;;;;;3.83;3.00;;;11.10;99.90;;;;;;5112858;28;20452;-66
2021/10/07 05:03:08;;;;;;;4.30;3.50;;;11.00;99.90;;;;;;5105900;28;20553;-66
2021/10/07 05:05:35;;;;;;;5.10;3.70;;;11.10;99.90;;;;;;5112830;28;20572;-66
2021/10/07 05:08:02;;;;;;;5.13;3.37;;;11.10;99.90;;;;;;5112540;28;20966;-66
2021/10/07 05:10:29;;;;;;;5.60;3.83;;;11.10;99.90;;;;;;5098438;28;20454;-66
2021/10/07 05:12:55;;;;;;;5.40;3.93;;;11.10;99.90;;;;;;5097449;28;20535;-66
2021/10/07 05:15:24;;;;;;;4.97;4.23;;;11.10;99.90;;;;;;5094193;28;20562;-66
2021/10/07 05:17:51;;;;;;;5.00;4.20;;;11.10;99.90;;;;;;5096386;28;20476;-67
2021/10/07 05:20:20;;;;;;;5.40;4.27;;;11.10;99.90;;;;;;5110273;28;21117;-66
2021/10/07 05:22:47;;;;;;;5.90;4.60;;;11.10;99.90;;;;;;5088036;28;20537;-67
2021/10/07 05:25:14;;;;;;;6.40;5.00;;;11.10;99.90;;;;;;5089350;28;20447;-66
2021/10/07 05:27:41;;;;;;;5.70;3.90;;;11.20;99.90;;;;;;5090682;28;20461;-66
2021/10/07 05:30:10;;;;;;;5.73;3.30;;;11.20;99.90;;;;;;5091974;28;20821;-66
2021/10/07 05:32:37;;;;;;;5.40;3.87;;;11.20;99.90;;;;;;5090885;28;20503;-65
2021/10/07 05:35:05;;;;;;;5.43;3.87;;;11.20;99.90;;;;;;5091641;28;20446;-65
2021/10/07 05:37:33;;;;;;;6.23;4.00;;;11.20;99.90;;;;;;5091917;28;20442;-65
2021/10/07 05:40:00;;;;;;;8.00;3.90;;;11.20;99.90;;;;;;5092027;28;20444;-65
2021/10/07 05:42:27;;;;;;;7.27;4.53;;;11.20;99.90;;;;;;5090832;28;20986;-65
2021/10/07 05:44:54;;;;;;;6.23;3.87;;;11.30;99.90;;;;;;5091130;28;20449;-65
2021/10/07 05:47:21;;;;;;;4.83;4.33;;;11.30;99.90;;;;;;5091576;28;21053;-65
2021/10/07 05:49:48;;;;;;;6.33;4.23;;;11.40;99.90;;;;;;5091544;28;20446;-65
2021/10/07 05:52:14;;;;;;;5.10;3.73;;;11.40;99.90;;;;;;5090733;28;20887;-66
2021/10/07 05:54:42;;;;;;;7.20;3.80;;;11.40;99.90;;;;;;5091154;28;20565;-66
2021/10/07 05:57:10;;;;;;;5.53;3.97;;;11.40;99.90;;;;;;5104552;28;20438;-65
2021/10/07 05:59:37;;;;;;;5.83;4.30;;;11.40;99.90;;;;;;5111430;28;20994;-65
2021/10/07 06:02:04;;;;;;;6.57;4.23;;;11.40;99.90;;;;;;5110730;28;20822;-67
2021/10/07 06:04:31;;;;;;;7.37;4.40;;;11.50;99.90;;;;;;5111364;28;20441;-67
2021/10/07 06:06:59;;;;;;;6.80;4.10;;;11.50;99.90;;;;;;5113391;28;20477;-67
2021/10/07 06:09:26;;;;;;;5.83;3.90;;;11.60;99.90;;;;;;5114558;28;20498;-67
2021/10/07 06:11:54;;;;;;;4.70;3.20;;;11.50;99.90;;;;;;5116166;28;20481;-67
2021/10/07 06:14:23;;;;;;;5.83;4.07;;;11.60;99.90;;;;;;5108096;28;20442;-67
2021/10/07 06:16:52;;;;;;;4.00;3.43;;;11.60;99.90;;;;;;5095633;28;20439;-67
2021/10/07 06:19:22;;;;;;;5.00;3.67;;;11.60;99.90;;;;;;5098072;28;20519;-67
2021/10/07 06:21:49;;;;;;;5.73;3.93;;;11.70;99.90;;;;;;5096276;28;20442;-67
2021/10/07 06:24:16;;;;;;;5.20;3.70;;;11.80;99.90;;;;;;5095646;28;20442;-67
2021/10/07 06:26:44;;;;;;;7.80;3.57;;;11.80;99.90;;;;;;5095586;28;20573;-67
2021/10/07 06:29:13;;;;;;;5.30;4.00;;;11.80;99.90;;;;;;5094692;28;20462;-67
2021/10/07 06:31:40;;;;;;;5.30;3.27;;;11.90;99.90;;;;;;5095892;28;20533;-67
2021/10/07 06:34:07;;;;;;;3.57;3.27;;;11.90;99.90;;;;;;5094373;28;20541;-66
2021/10/07 06:36:36;;;;;;;5.20;3.20;;;12.00;99.90;;;;;;5091918;28;20439;-66
2021/10/07 06:39:05;;;;;;;5.07;3.30;;;12.10;99.90;;;;;;5090899;28;21022;-67
2021/10/07 06:41:32;;;;;;;6.70;3.33;;;12.00;99.90;;;;;;5092936;28;20458;-67
2021/10/07 06:43:58;;;;;;;6.93;3.37;;;12.10;99.90;;;;;;5091950;28;20948;-65
2021/10/07 06:46:28;;;;;;;5.20;3.70;;;12.20;99.90;;;;;;5096564;28;20488;-66
2021/10/07 06:48:55;;;;;;;6.00;3.70;;;12.30;99.90;;;;;;5092055;28;21002;-67
2021/10/07 06:51:23;;;;;;;4.10;3.30;;;12.40;99.90;;;;;;5090132;28;20471;-67
2021/10/07 06:53:53;;;;;;;4.63;3.23;;;12.40;99.90;;;;;;5089730;28;20450;-65
2021/10/07 06:56:21;;;;;;;5.13;3.60;;;12.40;99.90;;;;;;5090706;28;20533;-67
2021/10/07 06:58:52;;;;;;;6.50;3.90;;;12.50;99.90;;;;;;5090254;28;20473;-67
2021/10/07 07:01:19;;;;;;;6.93;3.53;;;12.50;99.90;;;;;;5089850;28;20496;-67
2021/10/07 07:03:48;;;;;;;6.47;3.50;;;12.60;99.90;;;;;;5089549;28;21029;-66
2021/10/07 07:06:15;;;;;;;5.23;4.10;;;12.60;99.90;;;;;;5089955;28;20481;-67
2021/10/07 07:08:42;;;;;;;3.77;3.27;;;12.60;99.90;;;;;;5090093;28;20569;-67
2021/10/07 07:11:09;;;;;;;5.93;3.83;;;12.60;99.90;;;;;;5090259;28;20541;-67
2021/10/07 07:13:36;;;;;;;6.37;4.03;;;12.50;99.90;;;;;;5088179;28;20959;-67
2021/10/07 07:16:02;;;;;;;6.50;3.90;;;12.40;99.90;;;;;;5089776;28;20804;-65
2021/10/07 07:18:29;;;;;;;8.70;4.37;;;12.50;99.90;;;;;;5089702;28;20466;-65
2021/10/07 07:20:58;;;;;;;8.30;4.20;;;12.50;99.90;;;;;;5089694;28;20446;-66
2021/10/07 07:23:25;;;;;;;6.00;3.60;;;12.60;99.90;;;;;;5088851;28;20820;-66
2021/10/07 07:25:51;;;;;;;4.00;3.60;;;12.70;99.90;;;;;;5089790;28;20546;-66
2021/10/07 07:28:18;;;;;;;4.60;3.47;;;12.70;99.90;;;;;;5089742;28;20472;-66
2021/10/07 07:30:45;;;;;;;7.00;4.20;;;12.80;99.90;;;;;;5089804;28;20534;-66
2021/10/07 07:33:12;;;;;;;7.67;4.33;;;12.80;99.90;;;;;;5088418;28;20454;-66
2021/10/07 07:35:39;;;;;;;7.33;4.90;;;12.80;99.90;;;;;;5089900;28;20444;-67
2021/10/07 07:38:07;;;;;;;6.27;4.50;;;12.90;99.90;;;;;;5089738;28;20473;-66
2021/10/07 07:40:35;;;;;;;7.30;5.20;;;13.00;99.90;;;;;;5089703;28;20570;-66
2021/10/07 07:43:01;;;;;;;6.77;5.77;;;13.20;99.90;;;;;;5088480;28;20537;-66
2021/10/07 07:45:28;;;;;;;6.53;5.67;;;13.30;99.90;;;;;;5089564;28;20450;-67
2021/10/07 07:47:56;;;;;;;7.40;6.67;;;13.40;99.90;;;;;;5089192;28;20569;-66
2021/10/07 07:50:24;;;;;;;8.10;7.00;;;13.40;99.90;;;;;;5089654;28;20450;-66
2021/10/07 07:52:52;;;;;;;7.37;6.50;;;13.50;99.90;;;;;;5088452;28;20798;-66
2021/10/07 07:55:20;;;;;;;7.70;6.90;;;13.70;99.90;;;;;;5089618;28;20481;-65
2021/10/07 07:57:47;;;;;;;8.50;6.73;;;13.60;99.90;;;;;;5089462;28;20472;-67
2021/10/07 08:00:15;;;;;;;12.43;7.43;;;13.60;99.90;;;;;;5089399;28;20454;-66
2021/10/07 08:02:42;;;;;;;9.60;7.60;;;13.50;99.90;;;;;;5086886;28;20521;-66
2021/10/07 08:05:10;;;;;;;12.60;7.80;;;13.60;99.90;;;;;;5089517;28;20858;-66
2021/10/07 08:07:37;;;;;;;13.30;9.50;;;13.70;99.90;;;;;;5089315;28;20489;-67
2021/10/07 08:10:04;;;;;;;10.70;8.63;;;13.50;99.90;;;;;;5089380;28;20458;-66
2021/10/07 08:12:34;;;;;;;11.80;9.23;;;13.50;99.90;;;;;;5088411;28;20449;-66
2021/10/07 08:15:02;;;;;;;11.07;9.67;;;13.50;99.90;;;;;;5088856;28;20442;-66
2021/10/07 08:17:29;;;;;;;10.83;9.60;;;13.50;99.90;;;;;;5089423;28;20970;-65
2021/10/07 08:19:57;;;;;;;12.93;9.00;;;13.60;99.90;;;;;;5089360;28;20454;-65
2021/10/07 08:22:24;;;;;;;9.00;7.43;;;13.60;99.90;;;;;;5088442;28;20533;-65
2021/10/07 08:24:51;;;;;;;9.63;8.20;;;13.70;99.90;;;;;;5090288;28;20872;-66
2021/10/07 08:27:19;;;;;;;10.50;9.40;;;13.70;99.90;;;;;;5092986;28;20930;-65
2021/10/07 08:29:48;;;;;;;11.60;9.43;;;13.80;99.90;;;;;;5092901;28;20506;-65
2021/10/07 08:32:15;;;;;;;9.57;8.67;;;14.10;99.90;;;;;;5092237;28;20441;-65
2021/10/07 08:34:42;;;;;;;10.87;8.90;;;14.40;99.90;;;;;;5092491;28;20456;-65
2021/10/07 08:37:09;;;;;;;9.33;7.93;;;14.60;99.90;;;;;;5092768;28;20897;-66
2021/10/07 08:39:37;;;;;;;10.10;8.73;;;14.80;99.90;;;;;;5092861;28;20458;-66
2021/10/07 08:42:04;;;;;;;7.90;7.10;;;14.90;99.90;;;;;;5091855;28;20446;-64
2021/10/07 08:44:31;;;;;;;13.50;8.57;;;14.90;99.90;;;;;;5092281;28;20446;-66
2021/10/07 08:47:00;;;;;;;9.20;7.70;;;15.00;99.90;;;;;;5092814;28;20482;-65
2021/10/07 08:49:32;;;;;;;9.07;7.60;;;15.20;99.90;;;;;;5092623;28;21077;-65
2021/10/07 08:51:59;;;;;;;8.43;7.63;;;15.30;99.90;;;;;;5092159;28;20454;-66
2021/10/07 08:54:26;;;;;;;9.13;7.73;;;15.50;99.90;;;;;;5092347;28;20445;-66
2021/10/07 08:56:53;;;;;;;9.40;8.00;;;15.80;99.90;;;;;;5092646;28;20525;-66
2021/10/07 08:59:20;;;;;;;8.67;7.60;;;15.90;99.90;;;;;;5092480;28;20568;-67
2021/10/07 09:01:49;;;;;;;10.07;8.50;;;16.10;99.90;;;;;;5091881;28;20553;-66
2021/10/07 09:04:19;;;;;;;9.20;8.30;;;16.20;99.90;;;;;;5092394;28;20495;-64
2021/10/07 09:06:47;;;;;;;7.20;6.50;;;16.20;99.90;;;;;;5092417;28;20474;-66
2021/10/07 09:09:14;;;;;;;8.50;6.97;;;16.10;99.90;;;;;;5092042;28;20477;-64
2021/10/07 09:11:42;;;;;;;7.37;6.67;;;16.00;99.90;;;;;;5091594;28;20797;-66
2021/10/07 09:14:12;;;;;;;8.90;7.73;;;16.00;99.90;;;;;;5092243;28;20438;-66
2021/10/07 09:16:44;;;;;;;7.53;6.77;;;16.00;99.90;;;;;;5092436;28;20866;-65
2021/10/07 09:19:16;;;;;;;8.57;7.60;;;16.10;99.90;;;;;;5092216;28;20882;-67
2021/10/07 09:21:45;;;;;;;11.00;8.80;;;16.00;99.90;;;;;;5091247;28;20472;-66
2021/10/07 09:24:43;;;;;;;9.80;8.30;;;15.90;99.90;;;;;;5091903;28;20446;-66
2021/10/07 09:27:12;;;;;;;10.47;9.17;;;16.00;99.90;;;;;;5009453;28;20510;-66
2021/10/07 09:29:47;;;;;;;9.20;8.30;;;16.40;99.90;;;;;;5073829;28;20492;-65
2021/10/07 09:32:14;;;;;;;9.33;7.80;;;16.60;99.90;;;;;;5090921;28;21042;-65
2021/10/07 09:34:47;;;;;;;8.60;7.73;;;16.60;99.90;;;;;;5091654;28;20450;-65
2021/10/07 09:37:25;;;;;;;8.50;7.63;;;16.60;99.90;;;;;;5091100;28;20537;-66
2021/10/07 09:39:54;;;;;;;8.47;7.50;;;16.40;99.90;;;;;;5091860;28;20448;-66
2021/10/07 09:42:22;;;;;;;8.80;7.90;;;16.50;99.90;;;;;;5090781;28;20460;-66
2021/10/07 09:45:00;;;;;;;6.87;6.10;;;16.60;99.90;;;;;;5091284;28;20453;-66
2021/10/07 09:47:29;;;;;;;5.87;5.10;;;16.60;99.90;;;;;;5091615;28;20485;-66
2021/10/07 09:50:29;;;;;;;9.20;6.70;;;16.60;99.90;;;;;;5091673;28;20457;-67
2021/10/07 09:53:02;;;;;;;8.07;7.30;;;16.50;99.90;;;;;;5090352;28;20444;-66
2021/10/07 09:55:33;;;;;;;11.77;7.17;;;15.90;99.90;;;;;;5091474;28;20454;-65
2021/10/07 09:58:02;;;;;;;8.60;7.53;;;15.30;99.90;;;;;;5091460;28;20462;-65
2021/10/07 10:00:31;;;;;;;7.80;7.10;;;15.00;99.90;;;;;;5091424;28;20541;-66
2021/10/07 10:03:01;;;;;;;9.30;7.07;;;14.70;99.90;;;;;;5090133;28;20844;-66
2021/10/07 10:05:30;;;;;;;8.17;7.13;;;14.50;99.90;;;;;;5083586;28;20821;-64
2021/10/07 10:07:59;;;;;;;10.67;7.70;;;14.40;99.90;;;;;;5090351;28;20581;-64
2021/10/07 10:10:27;;;;;;;8.87;8.03;;;14.40;99.90;;;;;;5090518;28;20438;-64
2021/10/07 10:12:54;;;;;;;9.57;8.37;;;14.50;99.90;;;;;;5089082;28;20453;-64
2021/10/07 10:15:22;;;;;;;9.17;7.80;;;14.50;99.90;;;;;;5090194;28;21011;-64
2021/10/07 10:17:51;;;;;;;9.33;8.03;;;14.70;99.90;;;;;;5089976;28;21192;-64
2021/10/07 10:20:21;;;;;;;9.03;7.00;;;14.80;99.90;;;;;;5086783;28;21120;-63
2021/10/07 10:22:52;;;;;;;8.60;7.80;;;15.00;99.90;;;;;;5068887;28;20458;-65
2021/10/07 10:25:19;;;;;;;8.83;7.93;;;15.30;99.90;;;;;;5069658;28;20439;-65
2021/10/07 10:27:49;;;;;;;7.83;7.13;;;15.70;99.90;;;;;;5069351;28;20859;-66
2021/10/07 10:30:24;;;;;;;8.17;6.97;;;16.10;99.90;;;;;;5085595;28;21100;-64
2021/10/07 10:32:51;;;;;;;11.10;7.17;;;16.40;99.90;;;;;;5068690;28;20485;-64
2021/10/07 10:35:43;;;;;;;7.77;6.60;;;16.80;99.90;;;;;;5069498;28;20953;-65
2021/10/07 10:38:12;;;;;;;6.67;5.87;;;17.10;99.90;;;;;;5069372;28;20990;-64
2021/10/07 10:40:40;;;;;;;7.50;6.70;;;17.40;99.90;;;;;;5069197;28;20490;-65
2021/10/07 10:43:38;;;;;;;7.53;6.80;;;17.60;99.90;;;;;;5067898;28;20458;-63
2021/10/07 10:46:15;;;;;;;7.77;6.73;;;17.90;99.90;;;;;;5069111;28;20447;-64
2021/10/07 10:49:03;;;;;;;8.20;6.80;;;18.10;99.90;;;;;;5068132;28;20494;-64
2021/10/07 10:51:35;;;;;;;10.73;6.43;;;18.30;99.90;;;;;;5068351;28;20453;-64
2021/10/07 10:54:10;;;;;;;6.53;5.90;;;18.50;99.90;;;;;;5068450;28;20458;-64
2021/10/07 10:56:43;;;;;;;6.13;5.53;;;18.60;99.90;;;;;;5083912;28;20532;-64
2021/10/07 10:59:20;;;;;;;8.00;6.80;;;18.30;99.90;;;;;;5088995;28;21170;-65
2021/10/07 11:02:19;;;;;;;6.00;5.40;;;18.50;99.90;;;;;;5088239;28;20943;-64
2021/10/07 11:04:48;;;;;;;6.10;5.60;;;18.60;99.90;;;;;;5088556;28;20537;-65
2021/10/07 11:07:21;;;;;;;9.33;6.60;;;18.40;99.90;;;;;;5089099;28;20555;-65
2021/10/07 11:10:14;;;;;;;8.10;7.30;;;18.60;99.90;;;;;;5088905;28;21025;-65
2021/10/07 11:12:53;;;;;;;6.60;5.90;;;18.10;99.90;;;;;;5088203;28;20454;-64
2021/10/07 11:15:23;;;;;;;8.60;6.10;;;17.90;99.90;;;;;;5088765;28;20491;-64
2021/10/07 11:17:52;;;;;;;7.40;6.60;;;18.00;99.90;;;;;;5088809;28;20458;-65
2021/10/07 11:20:21;;;;;;;7.67;6.93;;;18.20;99.90;;;;;;5088638;28;20457;-64
2021/10/07 11:23:09;;;;;;;6.80;5.97;;;17.90;99.90;;;;;;5088025;28;20537;-64
2021/10/07 11:25:39;;;;;;;7.07;6.37;;;17.70;99.90;;;;;;5099920;28;20926;-65
2021/10/07 11:28:06;;;;;;;12.63;7.90;;;17.10;99.90;;;;;;5093326;28;20481;-65
2021/10/07 11:30:37;;;;;;;8.53;7.40;;;16.80;99.90;;;;;;5086204;28;20445;-64
2021/10/07 11:33:06;;;;;;;7.70;6.60;;;16.60;99.90;;;;;;5086251;28;20441;-65
2021/10/07 11:35:33;;;;;;;7.47;6.63;;;16.60;99.90;;;;;;5087697;28;20928;-64
2021/10/07 11:38:07;;;;;;;10.33;6.07;;;16.40;99.90;;;;;;5086950;28;20458;-65
2021/10/07 11:40:39;;;;;;;7.10;6.40;;;16.50;99.90;;;;;;5087348;28;20999;-65
2021/10/07 11:43:08;;;;;;;6.23;5.67;;;16.60;99.90;;;;;;5086245;28;20529;-64
2021/10/07 11:45:44;;;;;;;7.60;6.57;;;16.90;99.90;;;;;;5087274;28;20444;-65
2021/10/07 11:48:11;;;;;;;5.67;5.17;;;16.70;99.90;;;;;;5087285;28;20486;-65
2021/10/07 11:50:41;;;;;;;5.30;4.80;;;16.80;99.90;;;;;;5086305;28;20552;-65
2021/10/07 11:53:10;;;;;;;5.60;4.93;;;17.10;99.90;;;;;;5086570;28;20500;-65
2021/10/07 11:55:41;;;;;;;5.30;4.60;;;17.40;99.90;;;;;;5087697;28;20839;-66
2021/10/07 11:58:09;;;;;;;5.57;5.00;;;17.90;99.90;;;;;;5094314;28;20468;-66
2021/10/07 12:00:49;;;;;;;5.40;4.90;;;18.80;99.90;;;;;;5095241;28;21193;-66
2021/10/07 12:03:19;;;;;;;6.13;5.30;;;19.20;99.90;;;;;;5095646;28;20477;-69
2021/10/07 12:05:50;;;;;;;8.33;5.03;;;18.70;99.90;;;;;;5084310;28;20439;-69
2021/10/07 12:08:17;;;;;;;7.03;5.90;;;18.30;99.90;;;;;;5083483;28;20493;-67
2021/10/07 12:10:46;;;;;;;7.03;6.33;;;17.60;99.90;;;;;;5092879;28;20449;-67
2021/10/07 12:13:16;;;;;;;6.17;5.50;;;17.40;99.90;;;;;;5097557;28;20507;-65
2021/10/07 12:15:53;;;;;;;9.33;6.17;;;17.10;99.90;;;;;;5091087;28;20450;-66
2021/10/07 12:18:23;;;;;;;7.10;6.40;;;16.80;99.90;;;;;;5089007;28;20831;-66
2021/10/07 12:21:07;;;;;;;7.37;6.03;;;16.20;99.90;;;;;;5092485;28;20531;-65
2021/10/07 12:23:48;;;;;;;6.67;5.63;;;15.90;99.90;;;;;;5091471;28;20452;-66
2021/10/07 12:26:28;;;;;;;8.07;6.77;;;15.60;99.90;;;;;;5092136;28;20454;-64
2021/10/07 12:28:56;;;;;;;7.87;6.13;;;15.40;99.90;;;;;;5092030;28;20489;-65
2021/10/07 12:31:26;;;;;;;6.90;6.20;;;15.30;99.90;;;;;;5097911;28;20449;-65
2021/10/07 12:33:57;;;;;;;6.23;5.63;;;15.40;99.90;;;;;;5093312;28;20911;-64
2021/10/07 12:36:32;;;;;;;7.00;5.80;;;15.50;99.90;;;;;;5091830;28;20442;-66
2021/10/07 12:38:59;;;;;;;8.67;5.20;;;15.60;99.90;;;;;;5082866;28;20536;-65
2021/10/07 12:41:35;;;;;;;6.13;5.23;;;15.70;99.90;;;;;;5090390;28;20446;-65
2021/10/07 12:44:02;;;;;;;5.73;5.23;;;15.70;99.90;;;;;;5091188;28;20438;-65
2021/10/07 12:46:31;;;;;;;5.37;4.57;;;15.60;99.90;;;;;;5091737;28;20438;-66
2021/10/07 12:48:59;;;;;;;7.40;5.23;;;15.60;99.90;;;;;;5091526;28;20490;-66
2021/10/07 12:51:28;;;;;;;6.10;4.83;;;15.50;99.90;;;;;;5089270;28;20469;-66
2021/10/07 12:53:55;;;;;;;8.90;5.67;;;15.40;99.90;;;;;;5089407;28;20453;-66
2021/10/07 12:56:30;;;;;;;5.63;4.80;;;15.50;99.90;;;;;;5090003;28;20482;-66
2021/10/07 12:59:02;;;;;;;5.53;4.30;;;15.60;99.90;;;;;;5089164;28;20445;-66